createdAt,value
2019-05-03T00:02:28.320Z,13.38
2019-05-03T00:05:26.253Z,13.46
2019-05-03T00:07:59.814Z,13.42
2019-05-03T00:10:27.364Z,13.48
2019-05-03T00:12:54.807Z,13.43
2019-05-03T00:15:32.688Z,13.39
2019-05-03T00:18:00.035Z,13.31
2019-05-03T00:20:27.387Z,13.35
2019-05-03T00:22:54.566Z,13.29
2019-05-03T00:25:22.220Z,13.30
2019-05-03T00:27:49.478Z,13.27
2019-05-03T00:30:16.992Z,13.27
2019-05-03T00:32:44.333Z,13.29
2019-05-03T00:35:25.277Z,13.36
2019-05-03T00:37:54.437Z,13.31
2019-05-03T00:40:32.389Z,13.28
2019-05-03T00:42:59.898Z,13.35
2019-05-03T00:45:27.169Z,13.30
2019-05-03T00:47:54.561Z,13.34
2019-05-03T00:50:22.662Z,13.26
2019-05-03T00:52:51.552Z,13.28
2019-05-03T00:55:19.384Z,13.33
2019-05-03T00:57:46.869Z,13.31
2019-05-03T01:00:14.813Z,13.34
2019-05-03T01:02:42.422Z,13.33
2019-05-03T01:05:11.822Z,13.33
2019-05-03T01:07:39.008Z,13.30
2019-05-03T01:10:08.220Z,13.19
2019-05-03T01:12:35.491Z,13.26
2019-05-03T01:15:05.718Z,13.24
2019-05-03T01:17:35.401Z,13.25
2019-05-03T01:20:04.283Z,13.20
2019-05-03T01:22:32.251Z,13.24
2019-05-03T01:24:59.700Z,13.23
2019-05-03T01:27:26.999Z,13.16
2019-05-03T01:29:54.133Z,13.15
2019-05-03T01:32:22.261Z,13.26
2019-05-03T01:34:49.833Z,13.25
2019-05-03T01:37:17.188Z,13.22
2019-05-03T01:39:44.344Z,13.17
2019-05-03T01:42:11.991Z,13.11
2019-05-03T01:44:39.385Z,13.22
2019-05-03T01:47:11.533Z,13.06
2019-05-03T01:49:51.952Z,13.05
2019-05-03T01:52:29.236Z,13.07
2019-05-03T01:54:56.559Z,12.93
2019-05-03T01:57:23.703Z,12.85
2019-05-03T01:59:52.080Z,12.97
2019-05-03T02:02:52.528Z,12.79
2019-05-03T02:05:39.390Z,12.91
2019-05-03T02:08:06.853Z,12.74
2019-05-03T02:10:34.096Z,12.71
2019-05-03T02:13:01.705Z,12.75
2019-05-03T02:15:29.178Z,12.68
2019-05-03T02:17:56.428Z,12.54
2019-05-03T02:20:23.596Z,12.70
2019-05-03T02:22:52.184Z,12.46
2019-05-03T02:25:21.642Z,12.46
2019-05-03T02:27:48.746Z,12.37
2019-05-03T02:30:16.209Z,12.39
2019-05-03T02:32:44.130Z,12.20
2019-05-03T02:35:13.949Z,12.32
2019-05-03T02:37:44.058Z,12.26
2019-05-03T02:40:12.976Z,12.20
2019-05-03T02:42:46.144Z,12.19
2019-05-03T02:45:20.768Z,12.10
2019-05-03T02:47:55.580Z,12.08
2019-05-03T02:50:25.776Z,12.13
2019-05-03T02:52:51.868Z,11.95
2019-05-03T02:55:19.442Z,11.89
2019-05-03T02:57:46.999Z,11.75
2019-05-03T03:00:16.527Z,11.66
2019-05-03T03:02:45.640Z,11.60
2019-05-03T03:05:16.313Z,11.59
2019-05-03T03:07:46.163Z,11.67
2019-05-03T03:10:16.146Z,11.65
2019-05-03T03:12:46.958Z,11.63
2019-05-03T03:15:16.308Z,11.54
2019-05-03T03:17:46.304Z,11.49
2019-05-03T03:20:16.159Z,11.38
2019-05-03T03:22:45.783Z,11.39
2019-05-03T03:25:21.289Z,11.24
2019-05-03T03:27:51.645Z,10.93
2019-05-03T03:31:17.301Z,10.90
2019-05-03T03:33:47.117Z,10.93
2019-05-03T03:36:42.186Z,10.68
2019-05-03T03:38:45.771Z,10.61
2019-05-03T03:41:16.287Z,10.58
2019-05-03T03:43:46.346Z,10.60
2019-05-03T03:46:16.252Z,10.51
2019-05-03T03:48:46.099Z,10.48
2019-05-03T03:51:16.757Z,10.30
2019-05-03T03:53:46.496Z,10.27
2019-05-03T03:56:18.497Z,10.24
2019-05-03T03:58:47.921Z,10.13
2019-05-03T04:01:26.380Z,10.02
2019-05-03T04:03:52.592Z,10.01
2019-05-03T04:06:22.404Z,10.10
2019-05-03T04:09:01.051Z,9.92
2019-05-03T04:11:28.694Z,9.76
2019-05-03T04:13:56.178Z,9.93
2019-05-03T04:16:36.440Z,9.72
2019-05-03T04:19:12.691Z,9.77
2019-05-03T04:21:40.194Z,9.62
2019-05-03T04:24:08.356Z,9.54
2019-05-03T04:26:36.397Z,9.45
2019-05-03T04:29:05.352Z,9.44
2019-05-03T04:31:32.847Z,9.36
2019-05-03T04:34:00.010Z,9.42
2019-05-03T04:36:27.503Z,9.27
2019-05-03T04:38:56.207Z,9.27
2019-05-03T04:41:26.859Z,9.33
2019-05-03T04:43:55.379Z,9.37
2019-05-03T04:46:25.981Z,9.49
2019-05-03T04:48:55.901Z,9.68
2019-05-03T04:51:22.262Z,9.82
2019-05-03T04:53:56.083Z,9.87
2019-05-03T04:56:25.154Z,9.91
2019-05-03T04:58:52.532Z,9.96
2019-05-03T05:01:19.887Z,10.09
2019-05-03T05:03:47.273Z,10.22
2019-05-03T05:06:15.444Z,10.29
2019-05-03T05:08:46.096Z,10.39
2019-05-03T05:11:15.835Z,10.56
2019-05-03T05:13:51.748Z,10.69
2019-05-03T05:16:19.067Z,10.79
2019-05-03T05:18:51.606Z,10.90
2019-05-03T05:21:38.946Z,10.99
2019-05-03T05:24:06.373Z,11.01
2019-05-03T05:26:58.052Z,11.22
2019-05-03T05:29:27.557Z,11.26
2019-05-03T05:31:55.621Z,11.35
2019-05-03T05:34:24.565Z,11.48
2019-05-03T05:36:52.004Z,11.52
2019-05-03T05:39:19.368Z,11.60
2019-05-03T05:41:46.622Z,11.64
2019-05-03T05:44:14.473Z,11.87
2019-05-03T05:47:01.476Z,12.08
2019-05-03T05:49:41.943Z,12.12
2019-05-03T05:52:09.215Z,12.20
2019-05-03T05:54:38.487Z,12.34
2019-05-03T05:57:25.741Z,12.51
2019-05-03T05:59:59.314Z,12.52
2019-05-03T06:02:26.783Z,12.51
2019-05-03T06:04:54.410Z,12.61
2019-05-03T06:07:39.452Z,12.74
2019-05-03T06:10:25.972Z,12.90
2019-05-03T06:13:10.766Z,13.15
2019-05-03T06:15:44.849Z,13.26
2019-05-03T06:18:17.734Z,13.26
2019-05-03T06:21:01.678Z,13.46
2019-05-03T06:23:39.476Z,13.46
2019-05-03T06:26:26.388Z,13.55
2019-05-03T06:28:54.495Z,13.61
2019-05-03T06:31:29.051Z,13.57
2019-05-03T06:33:56.210Z,13.59
2019-05-03T06:36:24.348Z,13.56
2019-05-03T06:38:51.847Z,13.53
2019-05-03T06:41:19.111Z,13.57
2019-05-03T06:43:48.786Z,13.58
2019-05-03T06:46:18.246Z,13.66
2019-05-03T06:48:44.939Z,13.65
2019-05-03T06:51:17.877Z,13.66
2019-05-03T06:53:41.885Z,13.79
2019-05-03T06:56:10.643Z,13.90
2019-05-03T06:58:37.891Z,13.88
2019-05-03T07:01:25.301Z,14.03
2019-05-03T07:04:10.159Z,14.13
2019-05-03T07:06:47.938Z,14.02
2019-05-03T07:09:35.432Z,14.15
2019-05-03T07:12:04.505Z,14.06
2019-05-03T07:14:35.697Z,14.10
2019-05-03T07:17:05.369Z,14.13
2019-05-03T07:19:32.180Z,14.19
2019-05-03T07:21:59.326Z,14.24
2019-05-03T07:24:26.581Z,14.17
2019-05-03T07:26:55.141Z,14.21
2019-05-03T07:29:22.569Z,14.13
2019-05-03T07:31:49.738Z,14.13
2019-05-03T07:34:16.971Z,13.92
2019-05-03T07:36:44.634Z,14.02
2019-05-03T07:39:14.034Z,13.80
2019-05-03T07:41:41.349Z,13.81
2019-05-03T07:44:08.494Z,13.75
2019-05-03T07:46:35.857Z,13.76
2019-05-03T07:49:05.064Z,13.73
2019-05-03T07:51:34.850Z,13.72
2019-05-03T07:54:02.133Z,13.59
2019-05-03T07:56:36.483Z,13.64
2019-05-03T07:59:06.431Z,13.63
2019-05-03T08:01:47.055Z,13.42
2019-05-03T08:04:15.396Z,13.52
2019-05-03T08:06:44.598Z,13.56
2019-05-03T08:09:12.190Z,13.64
2019-05-03T08:11:39.579Z,13.75
2019-05-03T08:14:07.564Z,13.90
2019-05-03T08:16:35.284Z,13.91
2019-05-03T08:19:04.932Z,14.18
2019-05-03T08:21:37.475Z,14.30
2019-05-03T08:24:04.503Z,14.30
2019-05-03T08:26:31.951Z,14.32
2019-05-03T08:28:59.120Z,14.41
2019-05-03T08:31:48.642Z,14.53
2019-05-03T08:34:27.884Z,14.67
2019-05-03T08:36:57.724Z,15.14
2019-05-03T08:39:25.439Z,15.16
2019-05-03T08:41:58.843Z,15.34
2019-05-03T08:44:28.727Z,15.66
2019-05-03T08:46:56.782Z,15.70
2019-05-03T08:49:25.517Z,16.01
2019-05-03T08:51:54.943Z,16.14
2019-05-03T08:54:22.869Z,16.07
2019-05-03T08:56:50.171Z,16.40
2019-05-03T08:59:28.782Z,16.53
2019-05-03T09:01:46.934Z,16.57
2019-05-03T09:04:15.459Z,16.61
2019-05-03T09:06:44.596Z,16.60
2019-05-03T09:09:25.489Z,16.59
2019-05-03T09:11:52.955Z,16.57
2019-05-03T09:14:20.316Z,16.69
2019-05-03T09:16:47.491Z,16.55
2019-05-03T09:19:14.971Z,16.74
2019-05-03T09:21:42.215Z,17.01
2019-05-03T09:24:09.582Z,17.04
2019-05-03T09:26:36.861Z,16.93
2019-05-03T09:29:05.539Z,16.93
2019-05-03T09:31:32.887Z,17.09
2019-05-03T09:34:00.044Z,17.19
2019-05-03T09:36:27.392Z,17.22
2019-05-03T09:38:55.027Z,17.07
2019-05-03T09:41:22.388Z,17.11
2019-05-03T09:43:49.540Z,17.19
2019-05-03T09:46:16.894Z,17.29
2019-05-03T09:48:45.315Z,17.45
2019-05-03T09:51:14.751Z,17.53
2019-05-03T09:53:50.356Z,17.51
2019-05-03T09:56:20.402Z,17.41
2019-05-03T09:58:47.761Z,17.54
2019-05-03T10:01:15.207Z,17.76
2019-05-03T10:03:42.597Z,17.96
2019-05-03T10:06:09.845Z,17.98
2019-05-03T10:08:37.008Z,17.70
2019-05-03T10:11:10.192Z,17.77
2019-05-03T10:13:41.454Z,17.78
2019-05-03T10:16:07.469Z,17.94
2019-05-03T10:18:35.370Z,17.79
2019-05-03T10:21:05.085Z,17.89
2019-05-03T10:23:49.854Z,17.93
2019-05-03T10:26:17.213Z,18.33
2019-05-03T10:28:44.567Z,18.59
2019-05-03T10:31:12.023Z,18.62
2019-05-03T10:34:05.846Z,18.45
2019-05-03T10:36:35.499Z,18.48
2019-05-03T10:39:04.857Z,18.80
2019-05-03T10:41:34.629Z,19.75
2019-05-03T10:44:01.797Z,20.44
2019-05-03T10:46:28.941Z,20.67
2019-05-03T10:48:56.321Z,20.43
2019-05-03T10:51:26.490Z,20.21
2019-05-03T10:53:57.229Z,20.03
2019-05-03T10:56:31.843Z,19.89
2019-05-03T10:59:06.017Z,19.58
2019-05-03T11:01:41.612Z,19.42
2019-05-03T11:04:08.780Z,19.24
2019-05-03T11:06:36.158Z,19.36
2019-05-03T11:09:05.732Z,19.11
2019-05-03T11:11:35.194Z,19.22
2019-05-03T11:14:05.224Z,19.06
2019-05-03T11:16:31.943Z,19.08
2019-05-03T11:18:59.218Z,19.02
2019-05-03T11:21:28.869Z,18.89
2019-05-03T11:23:55.515Z,18.78
2019-05-03T11:26:25.126Z,18.72
2019-05-03T11:28:51.827Z,18.72
2019-05-03T11:31:37.581Z,18.92
2019-05-03T11:34:15.139Z,19.16
2019-05-03T11:37:17.117Z,19.28
2019-05-03T11:39:45.217Z,19.39
2019-05-03T11:42:12.601Z,19.48
2019-05-03T11:44:39.864Z,19.49
2019-05-03T11:47:08.044Z,19.45
2019-05-03T11:49:35.518Z,19.47
2019-05-03T11:52:03.378Z,19.81
2019-05-03T11:54:30.616Z,20.07
2019-05-03T11:56:59.932Z,20.44
2019-05-03T11:59:27.082Z,20.56
2019-05-03T12:02:04.800Z,20.73
2019-05-03T12:04:32.170Z,20.93
2019-05-03T12:06:59.314Z,20.89
2019-05-03T12:09:26.569Z,20.89
2019-05-03T12:11:55.468Z,20.89
2019-05-03T12:14:24.407Z,20.95
2019-05-03T12:17:17.166Z,21.17
2019-05-03T12:19:31.193Z,21.34
2019-05-03T12:21:56.951Z,21.60
2019-05-03T12:24:26.658Z,22.34
2019-05-03T12:26:55.662Z,22.74
2019-05-03T12:29:24.582Z,22.37
2019-05-03T12:31:52.158Z,22.31
2019-05-03T12:34:19.304Z,22.51
2019-05-03T12:36:46.541Z,22.98
2019-05-03T12:39:24.378Z,23.10
2019-05-03T12:41:42.899Z,22.84
2019-05-03T12:44:10.067Z,22.58
2019-05-03T12:46:37.196Z,22.04
2019-05-03T12:49:05.278Z,21.95
2019-05-03T12:51:34.536Z,21.97
2019-05-03T12:54:01.800Z,22.06
2019-05-03T12:56:32.563Z,21.86
2019-05-03T12:59:06.788Z,22.09
2019-05-03T13:01:46.333Z,21.67
2019-05-03T13:04:17.498Z,21.57
2019-05-03T13:06:50.328Z,21.64
2019-05-03T13:09:17.702Z,21.86
2019-05-03T13:11:55.287Z,22.02
2019-05-03T13:14:15.940Z,22.12
2019-05-03T13:16:44.515Z,22.07
2019-05-03T13:19:12.243Z,21.79
2019-05-03T13:21:39.410Z,21.73
2019-05-03T13:24:06.657Z,21.46
2019-05-03T13:26:35.036Z,21.33
2019-05-03T13:29:02.789Z,20.98
2019-05-03T13:31:29.939Z,20.82
2019-05-03T13:33:57.191Z,20.67
2019-05-03T13:36:25.261Z,20.78
2019-05-03T13:38:54.535Z,20.80
2019-05-03T13:41:21.698Z,20.79
2019-05-03T13:43:49.057Z,21.06
2019-05-03T13:46:16.298Z,20.60
2019-05-03T13:48:46.625Z,20.92
2019-05-03T13:51:14.723Z,21.29
2019-05-03T13:53:41.893Z,21.16
2019-05-03T13:56:09.162Z,21.10
2019-05-03T13:58:36.427Z,20.82
2019-05-03T14:01:05.574Z,20.89
2019-05-03T14:03:35.088Z,20.87
2019-05-03T14:06:07.634Z,20.65
2019-05-03T14:08:31.826Z,20.63
2019-05-03T14:10:59.283Z,20.66
2019-05-03T14:13:26.530Z,20.65
2019-05-03T14:15:54.781Z,20.75
2019-05-03T14:18:22.086Z,20.73
2019-05-03T14:21:11.854Z,20.67
2019-05-03T14:23:57.564Z,20.68
2019-05-03T14:26:24.836Z,20.93
2019-05-03T14:28:52.073Z,20.76
2019-05-03T14:31:19.222Z,20.84
2019-05-03T14:33:46.388Z,20.36
2019-05-03T14:36:15.919Z,20.26
2019-05-03T14:38:42.626Z,20.30
2019-05-03T14:41:10.004Z,19.83
2019-05-03T14:43:37.269Z,19.43
2019-05-03T14:46:29.199Z,19.69
2019-05-03T14:48:45.796Z,19.45
2019-05-03T14:51:14.727Z,19.41
2019-05-03T14:53:42.312Z,19.49
2019-05-03T14:56:18.370Z,19.47
2019-05-03T14:59:07.964Z,19.15
2019-05-03T15:01:44.087Z,19.07
2019-05-03T15:04:11.419Z,18.80
2019-05-03T15:06:38.661Z,18.87
2019-05-03T15:09:06.916Z,19.00
2019-05-03T15:11:34.597Z,18.86
2019-05-03T15:14:01.979Z,18.82
2019-05-03T15:16:29.346Z,19.00
2019-05-03T15:18:56.609Z,18.85
2019-05-03T15:21:25.162Z,18.79
2019-05-03T15:23:52.419Z,18.82
2019-05-03T15:26:19.699Z,18.61
2019-05-03T15:28:46.826Z,18.42
2019-05-03T15:31:14.078Z,18.59
2019-05-03T15:33:41.351Z,18.35
2019-05-03T15:36:08.891Z,18.20
2019-05-03T15:38:36.260Z,18.10
2019-05-03T15:41:05.430Z,18.13
2019-05-03T15:43:42.742Z,18.01
2019-05-03T15:46:29.536Z,17.87
2019-05-03T15:48:58.551Z,17.97
2019-05-03T15:51:25.851Z,17.98
2019-05-03T15:53:54.980Z,17.85
2019-05-03T15:56:22.196Z,17.67
2019-05-03T15:58:49.457Z,17.61
2019-05-03T16:01:16.623Z,17.52
2019-05-03T16:03:44.869Z,17.81
2019-05-03T16:06:12.318Z,17.74
2019-05-03T16:08:39.684Z,17.72
2019-05-03T16:11:06.938Z,17.77
2019-05-03T16:13:38.155Z,17.94
2019-05-03T16:16:05.108Z,17.77
2019-05-03T16:18:32.388Z,17.99
2019-05-03T16:20:59.740Z,17.87
2019-05-03T16:23:27.123Z,17.87
2019-05-03T16:25:54.615Z,17.65
2019-05-03T16:28:42.143Z,17.46
2019-05-03T16:31:15.386Z,17.44
2019-05-03T16:33:42.574Z,17.29
2019-05-03T16:36:09.854Z,17.24
2019-05-03T16:38:37.249Z,17.09
2019-05-03T16:41:05.178Z,17.12
2019-05-03T16:43:32.446Z,17.08
2019-05-03T16:45:59.612Z,16.86
2019-05-03T16:48:26.981Z,16.75
2019-05-03T16:50:54.453Z,16.69
2019-05-03T16:53:21.767Z,16.83
2019-05-03T16:55:48.984Z,16.72
2019-05-03T16:58:16.999Z,16.84
2019-05-03T17:00:44.828Z,16.96
2019-05-03T17:03:12.387Z,16.84
2019-05-03T17:06:17.261Z,16.88
2019-05-03T17:09:10.050Z,16.87
2019-05-03T17:11:37.290Z,16.75
2019-05-03T17:14:05.076Z,16.78
2019-05-03T17:16:34.535Z,16.71
2019-05-03T17:19:01.939Z,16.71
2019-05-03T17:21:29.191Z,16.65
2019-05-03T17:23:56.464Z,16.78
2019-05-03T17:26:24.908Z,16.74
2019-05-03T17:28:52.239Z,16.63
2019-05-03T17:31:19.642Z,16.45
2019-05-03T17:33:53.552Z,16.41
2019-05-03T17:36:16.076Z,16.39
2019-05-03T17:38:44.348Z,16.22
2019-05-03T17:41:35.311Z,16.06
2019-05-03T17:44:06.176Z,15.86
2019-05-03T17:46:34.740Z,15.81
2019-05-03T17:49:02.184Z,15.55
2019-05-03T17:51:45.593Z,15.66
2019-05-03T17:54:33.393Z,15.41
2019-05-03T17:57:20.436Z,15.30
2019-05-03T17:59:52.338Z,15.29
2019-05-03T18:02:29.203Z,15.43
2019-05-03T18:05:16.103Z,15.14
2019-05-03T18:08:06.121Z,15.29
2019-05-03T18:10:34.702Z,15.13
2019-05-03T18:13:02.091Z,15.03
2019-05-03T18:15:29.230Z,15.09
2019-05-03T18:17:56.478Z,14.85
2019-05-03T18:20:25.452Z,14.95
2019-05-03T18:22:54.717Z,14.89
2019-05-03T18:25:22.054Z,14.87
2019-05-03T18:27:49.311Z,14.77
2019-05-03T18:30:16.587Z,14.58
2019-05-03T18:32:45.258Z,14.53
2019-05-03T18:35:12.607Z,14.40
2019-05-03T18:37:39.890Z,14.48
2019-05-03T18:40:08.358Z,14.61
2019-05-03T18:42:41.476Z,14.32
2019-05-03T18:45:15.555Z,14.31
2019-05-03T18:47:42.806Z,14.25
2019-05-03T18:50:10.901Z,14.19
2019-05-03T18:52:38.187Z,14.10
2019-05-03T18:55:05.669Z,14.11
2019-05-03T18:57:32.927Z,13.91
2019-05-03T19:00:00.093Z,13.79
2019-05-03T19:02:27.271Z,13.72
2019-05-03T19:04:54.966Z,13.52
2019-05-03T19:07:41.206Z,13.50
2019-05-03T19:10:35.437Z,13.46
2019-05-03T19:13:26.472Z,13.23
2019-05-03T19:15:55.044Z,13.19
2019-05-03T19:18:40.595Z,13.05
2019-05-03T19:21:07.973Z,12.91
2019-05-03T19:23:35.608Z,12.83
2019-05-03T19:26:05.401Z,12.71
2019-05-03T19:28:32.486Z,12.71
2019-05-03T19:30:59.979Z,12.59
2019-05-03T19:33:27.224Z,12.62
2019-05-03T19:35:55.059Z,12.52
2019-05-03T19:38:24.500Z,12.51
2019-05-03T19:40:51.601Z,12.52
2019-05-03T19:43:19.035Z,12.47
2019-05-03T19:45:46.294Z,12.48
2019-05-03T19:48:14.757Z,12.45
2019-05-03T19:50:44.545Z,12.40
2019-05-03T19:53:46.620Z,12.37
2019-05-03T19:56:14.769Z,12.37
2019-05-03T19:58:42.160Z,12.40
2019-05-03T20:01:31.661Z,12.31
2019-05-03T20:04:05.972Z,12.33
2019-05-03T20:06:41.555Z,12.16
2019-05-03T20:09:12.644Z,12.27
2019-05-03T20:11:39.939Z,12.32
2019-05-03T20:14:07.188Z,12.29
2019-05-03T20:16:34.799Z,12.35
2019-05-03T20:19:15.336Z,12.33
2019-05-03T20:21:31.425Z,12.29
2019-05-03T20:23:58.691Z,12.22
2019-05-03T20:26:26.033Z,12.25
2019-05-03T20:28:55.147Z,12.23
2019-05-03T20:31:22.357Z,12.27
2019-05-03T20:33:49.910Z,12.25
2019-05-03T20:36:17.305Z,12.19
2019-05-03T20:38:44.676Z,12.27
2019-05-03T20:41:12.062Z,12.27
2019-05-03T20:43:50.190Z,12.23
2019-05-03T20:46:25.460Z,12.22
2019-05-03T20:48:55.665Z,12.21
2019-05-03T20:51:22.905Z,12.30
2019-05-03T20:53:50.176Z,12.21
2019-05-03T20:56:17.351Z,12.24
2019-05-03T20:58:44.787Z,12.13
2019-05-03T21:01:12.310Z,12.17
2019-05-03T21:03:39.496Z,12.15
2019-05-03T21:06:06.872Z,12.21
2019-05-03T21:08:34.635Z,12.16
2019-05-03T21:11:02.211Z,12.17
2019-05-03T21:13:41.763Z,12.11
2019-05-03T21:16:18.838Z,12.11
2019-05-03T21:18:52.243Z,12.10
2019-05-03T21:21:41.448Z,12.03
2019-05-03T21:24:17.089Z,11.98
2019-05-03T21:26:45.138Z,11.94
2019-05-03T21:29:12.330Z,11.88
2019-05-03T21:31:39.805Z,11.87
2019-05-03T21:34:07.066Z,11.82
2019-05-03T21:36:34.939Z,11.84
2019-05-03T21:39:02.666Z,11.88
2019-05-03T21:41:29.818Z,11.78
2019-05-03T21:43:56.991Z,11.71
2019-05-03T21:46:30.646Z,11.76
2019-05-03T21:49:04.462Z,11.78
2019-05-03T21:51:31.923Z,11.69
2019-05-03T21:53:59.066Z,11.70
2019-05-03T21:56:32.084Z,11.65
2019-05-03T21:58:59.236Z,11.68
2019-05-03T22:01:26.894Z,11.69
2019-05-03T22:03:54.301Z,11.59
2019-05-03T22:06:21.575Z,11.64
2019-05-03T22:08:48.833Z,11.49
2019-05-03T22:11:16.209Z,11.44
2019-05-03T22:13:45.538Z,11.55
2019-05-03T22:16:16.584Z,11.44
2019-05-03T22:18:45.461Z,11.45
2019-05-03T22:21:28.389Z,11.45
2019-05-03T22:24:15.197Z,11.43
2019-05-03T22:27:11.078Z,11.44
2019-05-03T22:29:38.323Z,11.33
2019-05-03T22:32:05.682Z,11.29
2019-05-03T22:34:34.824Z,11.32
2019-05-03T22:37:02.348Z,11.24
2019-05-03T22:39:29.491Z,11.27
2019-05-03T22:41:56.930Z,11.17
2019-05-03T22:44:25.304Z,11.10
2019-05-03T22:46:54.968Z,11.14
2019-05-03T22:49:22.021Z,11.21
2019-05-03T22:51:49.502Z,11.18
2019-05-03T22:54:16.772Z,11.20
2019-05-03T22:56:44.770Z,11.22
2019-05-03T22:59:14.506Z,11.24
2019-05-03T23:01:41.708Z,11.17
2019-05-03T23:04:08.985Z,11.12
2019-05-03T23:06:36.128Z,11.09
2019-05-03T23:09:05.637Z,11.11
2019-05-03T23:11:35.200Z,11.07
2019-05-03T23:14:04.655Z,11.04
2019-05-03T23:16:32.809Z,10.92
2019-05-03T23:19:00.600Z,10.97
2019-05-03T23:21:33.089Z,11.00
2019-05-03T23:24:00.280Z,10.92
2019-05-03T23:26:27.532Z,10.84
2019-05-03T23:28:55.141Z,10.84
2019-05-03T23:31:22.338Z,10.87
2019-05-03T23:33:49.595Z,10.91
2019-05-03T23:36:16.735Z,10.81
2019-05-03T23:38:45.250Z,10.83
2019-05-03T23:41:12.770Z,10.79
2019-05-03T23:43:39.939Z,10.75
2019-05-03T23:46:08.098Z,10.77
2019-05-03T23:48:35.347Z,10.71
2019-05-03T23:51:04.568Z,10.67
2019-05-03T23:53:31.883Z,10.66
2019-05-03T23:56:09.024Z,10.69
2019-05-03T23:58:36.177Z,10.66
